To NAV CANADA Home Page Login to a new session Search on AWWS site Feedback and Comments Disclaimer Vers la page française équivalente Tips FAQ What's new on the site To the Forecasts and Observations / NOTAM section To "File a Flight Plan" website Publications and other links Update of the User's profile FIC Telephone Numbers My Weather Data Folder Route Weather Data Regional Weather Data Local Weather Data To the Forecasts and Observations / NOTAM section
Request Generated 04/16/2014 at 13:33:14 UTC . Weather information available at that time is displayed.

METAR/TAF

HAVRE ST-PIERRE/QC    (show WxCam)

SPECI CYGV 161332Z AUTO 25030G37KT 2 1/4SM -SN BKN008 OVC013 M01/M02
A2952 RMK MAX WND 25031KT AT 1330Z PRESRR SLP999=
SPECI CYGV 161327Z AUTO 25031G37KT 5SM -SN OVC008 M01/M02 A2952 RMK
MAX WND 25031KT AT 1327Z PRESRR SLP999=
SPECI CYGV 161314Z AUTO 25026G37KT 9SM -SN OVC008 M00/M02 A2950 RMK
MAX WND 25029KT AT 1305Z PRESRR SLP993=
METAR CYGV 161300Z AUTO 25026G35KT 8SM OVC008 M00/M01 A2951 RMK MAX
WND 26029KT AT 1204Z PRESRR SLP994=
SPECI CYGV 161239Z AUTO 25024G31KT 7SM OVC008 00/M01 A2949 RMK MAX
WND 26029KT AT 1204Z PRESFR SLP988=
SPECI CYGV 161228Z AUTO 26026G33KT 6SM -RA BR OVC008 00/M01 A2948 RMK
MAX WND 26029KT AT 1204Z PRESFR SLP983=
SPECI CYGV 161204Z AUTO 26029G35KT 3SM -RA BR OVC008 00/M00 A2950 RMK
MAX WND 26029KT AT 1204Z PRESRR SLP993=
METAR CYGV 161200Z AUTO 26025G32KT 3SM -RA BR OVC006 00/M00 A2949 RMK
MAX WND 26026KT AT 1155Z PRESRR PCPN 0.5MM PAST HR SLP988=
SPECI CYGV 161126Z AUTO 25019G27KT 5SM -RA BR OVC006 01/00 A2948 RMK
MAX WND 25020KT AT 1122Z SLP985=
SPECI CYGV 161105Z AUTO 25014G19KT 6SM -RA BR OVC006 01/00 A2948 RMK
SLP983=
METAR CYGV 161100Z AUTO 25016KT 4SM -RA BR BKN004 OVC008 01/00 A2947
RMK MAX WND 25017KT AT 1034Z PCPN 0.8MM PAST HR SLP981=

TAF AMD CYGV 161307Z 1613/1620 25020G35KT 6SM -SN OVC010 TEMPO
1613/1615 1SM -SN -PL OVC006
FM161500 26025G40KT P6SM SCT015 BKN070 TEMPO 1615/1618 4SM -SN
BLSN OVC015
FM161800 28020G30KT P6SM FEW070
RMK FCST BASED ON AUTO OBS. NXT FCST BY 161400Z=
Your time UTC time
Weather data provided by Environment Canada and NAV CANADA